Huntsville International Carl T Jones Field Huntsville US
ICAO: KHSV
IATA: HSV
Category: Large
Scheduled Services: Yes

Elevation: 629 ft
TransAlt. 18000 ft.

Airport Communications:
APP:118.05
ATIS:121.25
CLNC DEL:120.35
CTAF:127.6
DEP:118.05
GND:121.9
ANNISTON RDO:122.2
TWR:127.6
UNICOM:122.95

KHSV Zoom In..

Runways:

(A) RW 18L length 10006 ft width 150 ft
ILS 111.90 / hdg 182

(B) RW 18R length 12600 ft width 150 ft
ILS 109.30 / hdg 182

(C) RW 36L length 12600 ft width 150 ft
ILS 108.50 / hdg 2

(D) RW 36R length 10006 ft width 150 ft
ILS 109.55 / hdg 2

Location; KHSV
Day. 26 / Time. 03.53 Zulu
* Altimeter: 29.94
* Temperature: 22° c. 71.6°f.
* Wind from: 000° Speed 00 kn.
Dewpoint: 21° c.
Visibility: 10 Statute Miles.
Clouds: Few 500 ft.
Clouds: Scattered 14000 ft.

KHSV 260353Z 00000KT 10SM FEW005 SCT140 22/21 A2994 RMK AO2 SLP131 T02170211 $


Wind - Calm.

 
 
jpsmedia.com for Web Design SOUNDCLOUD worldairports.se 2018   terms of use